Time;durP1;ratioP1;P1;durP2;ratioP2;P2;SDS_P1;SDS_P2;PMS_P1;PMS_P2;Temp;Humidity;BMP_temperature;BMP_pressure;BME280_temperature;BME280_humidity;BME280_pressure;Samples;Min_cycle;Max_cycle;Signal;HPM_P1;HPM_P2
2022/12/27 00:02:11;;;;;;;;;;;2.90;99.90;;;;;;6247647;23;19899;-72
2022/12/27 00:04:36;;;;;;;;;;;3.00;99.90;;;;;;6248002;23;20330;-72
2022/12/27 00:07:02;;;;;;;;;;;3.00;99.90;;;;;;6247592;23;20322;-72
2022/12/27 00:09:27;;;;;;;;;;;3.00;99.90;;;;;;6247453;23;20281;-72
2022/12/27 00:11:53;;;;;;;;;;;3.10;99.90;;;;;;6247915;23;20280;-72
2022/12/27 00:14:18;;;;;;;;;;;3.20;99.90;;;;;;6247520;23;20314;-72
2022/12/27 00:16:44;;;;;;;;;;;3.20;99.90;;;;;;6247494;23;19929;-70
2022/12/27 00:19:10;;;;;;;;;;;3.20;99.90;;;;;;6247832;23;19900;-72
2022/12/27 00:21:35;;;;;;;;;;;3.10;99.90;;;;;;6247411;23;19907;-72
2022/12/27 00:24:01;;;;;;;;;;;3.10;99.90;;;;;;6247685;22;19900;-70
2022/12/27 00:26:30;;;;;;;;;;;3.00;99.90;;;;;;6247765;23;19900;-72
2022/12/27 00:28:56;;;;;;;;;;;2.90;99.90;;;;;;6247377;23;19900;-71
2022/12/27 00:31:22;;;;;;;;;;;2.80;99.90;;;;;;6247315;23;19910;-72
2022/12/27 00:33:49;;;;;;;;;;;2.80;99.90;;;;;;6247717;23;20257;-71
2022/12/27 00:36:15;;;;;;;;;;;2.80;99.90;;;;;;6247306;23;19911;-72
2022/12/27 00:38:41;;;;;;;;;;;2.90;99.90;;;;;;6247301;23;19965;-70
2022/12/27 00:41:07;;;;;;;;;;;2.80;99.90;;;;;;6247634;23;20380;-72
2022/12/27 00:43:33;;;;;;;;;;;2.80;99.90;;;;;;6247171;23;20322;-71
2022/12/27 00:45:59;;;;;;;;;;;2.70;99.90;;;;;;6247306;23;19907;-71
2022/12/27 00:48:24;;;;;;;;;;;2.80;99.90;;;;;;6247946;23;19950;-72
2022/12/27 00:50:50;;;;;;;;;;;2.70;99.90;;;;;;6247099;23;19908;-71
2022/12/27 00:53:15;;;;;;;;;;;2.50;99.90;;;;;;6247134;23;19906;-72
2022/12/27 00:55:42;;;;;;;;;;;2.60;99.90;;;;;;6247863;23;19903;-72
2022/12/27 00:58:07;;;;;;;;;;;2.60;99.90;;;;;;6247088;23;19903;-72
2022/12/27 01:00:33;;;;;;;;;;;2.60;99.90;;;;;;6247134;23;19993;-72
2022/12/27 01:02:58;;;;;;;;;;;2.50;99.90;;;;;;6247077;23;20355;-71
2022/12/27 01:05:24;;;;;;;;;;;2.50;99.90;;;;;;6247027;23;19935;-71
2022/12/27 01:07:49;;;;;;;;;;;2.50;99.90;;;;;;6220152;23;19999;-71
2022/12/27 01:10:15;;;;;;;;;;;2.50;99.90;;;;;;6246892;23;19910;-71
2022/12/27 01:12:41;;;;;;;;;;;2.50;99.90;;;;;;6246954;23;19904;-70
2022/12/27 01:15:07;;;;;;;;;;;2.60;99.90;;;;;;6246937;23;19922;-71
2022/12/27 01:17:32;;;;;;;;;;;2.70;99.90;;;;;;6246866;23;19915;-72
2022/12/27 01:19:58;;;;;;;;;;;2.90;99.90;;;;;;6246896;23;19900;-71
2022/12/27 01:22:24;;;;;;;;;;;2.90;99.90;;;;;;6246874;23;19899;-72
2022/12/27 01:24:49;;;;;;;;;;;2.90;99.90;;;;;;6246972;22;19899;-71
2022/12/27 01:27:15;;;;;;;;;;;2.70;99.90;;;;;;6246836;23;19906;-72
2022/12/27 01:29:40;;;;;;;;;;;2.60;99.90;;;;;;6247085;23;19904;-71
2022/12/27 01:32:06;;;;;;;;;;;2.40;99.90;;;;;;6246559;23;19915;-71
2022/12/27 01:34:31;;;;;;;;;;;2.40;99.90;;;;;;6246757;23;19899;-71
2022/12/27 01:36:57;;;;;;;;;;;2.30;99.90;;;;;;6246759;23;20318;-71
2022/12/27 01:39:22;;;;;;;;;;;2.40;99.90;;;;;;6246731;23;19903;-72
2022/12/27 01:44:32;;;;;;;;;;;2.40;99.90;;;;;;6246416;23;19953;-72
2022/12/27 01:46:58;;;;;;;;;;;2.50;99.90;;;;;;6247373;23;19937;-71
2022/12/27 01:49:24;;;;;;;;;;;2.60;99.90;;;;;;6246558;23;20306;-72
2022/12/27 01:51:49;;;;;;;;;;;2.60;99.90;;;;;;6246608;23;19905;-71
2022/12/27 01:54:15;;;;;;;;;;;2.60;99.90;;;;;;6219725;23;19923;-72
2022/12/27 01:56:40;;;;;;;;;;;2.70;99.90;;;;;;6246614;23;19900;-71
2022/12/27 01:59:08;;;;;;;;;;;2.70;99.90;;;;;;6246625;23;19900;-71
2022/12/27 02:01:36;;;;;;;;;;;2.70;99.90;;;;;;6246890;23;19903;-72
2022/12/27 02:04:07;;;;;;;;;;;2.50;99.90;;;;;;6246579;23;19903;-71
2022/12/27 02:06:33;;;;;;;;;;;2.60;99.90;;;;;;6246945;23;19907;-72
2022/12/27 02:09:07;;;;;;;;;;;2.80;99.90;;;;;;6246477;23;19899;-71
2022/12/27 02:11:52;;;;;;;;;;;2.90;99.90;;;;;;6246805;23;19911;-71
2022/12/27 02:14:26;;;;;;;;;;;2.90;99.90;;;;;;6246498;23;19930;-71
2022/12/27 02:16:52;;;;;;;;;;;3.00;99.90;;;;;;6246656;23;19979;-72
2022/12/27 02:19:23;;;;;;;;;;;3.20;99.90;;;;;;6250111;23;19900;-72
2022/12/27 02:21:48;;;;;;;;;;;3.30;99.90;;;;;;6249935;23;20312;-72
2022/12/27 02:24:20;;;;;;;;;;;3.40;99.90;;;;;;6249784;22;19915;-71
2022/12/27 02:27:03;;;;;;;;;;;3.50;99.90;;;;;;6250191;23;19938;-72
2022/12/27 02:29:35;;;;;;;;;;;3.60;99.90;;;;;;6249749;23;19982;-71
2022/12/27 02:32:06;;;;;;;;;;;3.60;99.90;;;;;;6249775;22;19925;-71
2022/12/27 02:34:39;;;;;;;;;;;3.70;99.90;;;;;;6250151;23;19927;-72
2022/12/27 02:37:08;;;;;;;;;;;3.80;99.90;;;;;;6249874;23;19907;-71
2022/12/27 02:39:36;;;;;;;;;;;3.90;99.90;;;;;;6250122;23;19903;-73
2022/12/27 02:53:23;;;;;;;;;;;4.30;99.90;;;;;;6157017;23;19979;-71
2022/12/27 02:58:54;;;;;;;;;;;4.20;99.90;;;;;;6249388;23;19946;-72
2022/12/27 03:04:28;;;;;;;;;;;4.30;99.90;;;;;;6249724;23;20000;-71
2022/12/27 03:07:12;;;;;;;;;;;4.30;99.90;;;;;;6249943;23;19899;-72
2022/12/27 03:15:54;;;;;;;;;;;4.60;99.90;;;;;;6249655;23;19918;-71
2022/12/27 03:18:23;;;;;;;;;;;4.90;99.90;;;;;;6249972;23;20282;-72
2022/12/27 03:26:18;;;;;;;;;;;5.10;99.90;;;;;;6249909;22;19907;-70
2022/12/27 03:34:30;;;;;;;;;;;4.90;99.90;;;;;;6247646;23;19945;-72
2022/12/27 03:39:47;;;;;;;;;;;5.00;99.90;;;;;;6248295;23;19907;-72
2022/12/27 03:45:00;;;;;;;;;;;5.10;99.90;;;;;;6247594;23;19905;-71
2022/12/27 03:47:34;;;;;;;;;;;5.10;99.90;;;;;;6248121;23;19938;-73
2022/12/27 03:50:09;;;;;;;;;;;5.30;99.90;;;;;;6248028;23;19982;-71
2022/12/27 03:52:40;;;;;;;;;;;5.30;99.90;;;;;;6248057;23;20289;-71
2022/12/27 03:55:06;;;;;;;;;;;5.40;99.90;;;;;;6247716;23;19906;-73
2022/12/27 03:57:32;;;;;;;;;;;5.40;99.90;;;;;;6247728;23;19899;-70
2022/12/27 03:59:57;;;;;;;;;;;5.50;99.90;;;;;;6247651;23;19966;-72
2022/12/27 04:02:23;;;;;;;;;;;5.50;99.90;;;;;;6247946;23;20203;-73
2022/12/27 04:04:48;;;;;;;;;;;5.40;99.90;;;;;;6247629;23;19903;-72
2022/12/27 04:07:14;;;;;;;;;;;5.40;99.90;;;;;;6247614;23;19900;-72
2022/12/27 04:37:01;;;;;;;;;;;4.90;99.90;;;;;;6247418;23;19946;-70
2022/12/27 04:39:27;;;;;;;;;;;5.00;99.90;;;;;;6247284;23;19903;-72
2022/12/27 04:55:39;;;;;;;;;;;5.20;99.90;;;;;;6247186;23;19979;-71
2022/12/27 04:58:04;;;;;;;;;;;5.10;99.90;;;;;;6247083;23;19903;-70
2022/12/27 05:03:15;;;;;;;;;;;4.90;99.90;;;;;;6247195;23;19911;-71
2022/12/27 05:05:42;;;;;;;;;;;4.80;99.90;;;;;;6247082;23;19900;-71
2022/12/27 05:16:20;;;;;;;;;;;4.80;99.90;;;;;;6247022;23;20242;-72
2022/12/27 05:18:46;;;;;;;;;;;4.70;99.90;;;;;;6246934;23;19900;-71
2022/12/27 05:21:11;;;;;;;;;;;4.70;99.90;;;;;;6246915;23;19953;-70
2022/12/27 05:26:22;;;;;;;;;;;4.70;99.90;;;;;;6247307;23;19986;-71
2022/12/27 05:28:48;;;;;;;;;;;4.80;99.90;;;;;;6246844;23;19923;-73
2022/12/27 05:31:13;;;;;;;;;;;4.80;99.90;;;;;;6219859;23;20330;-73
2022/12/27 05:33:39;;;;;;;;;;;4.80;99.90;;;;;;6246555;23;19919;-72
2022/12/27 05:36:04;;;;;;;;;;;4.70;99.90;;;;;;6247101;23;19911;-71
2022/12/27 05:38:30;;;;;;;;;;;4.60;99.90;;;;;;6247120;23;19899;-72
2022/12/27 05:40:56;;;;;;;;;;;4.40;99.90;;;;;;6247375;23;19907;-71
2022/12/27 05:43:22;;;;;;;;;;;4.30;99.90;;;;;;6246691;23;19923;-71
2022/12/27 05:45:47;;;;;;;;;;;4.10;99.90;;;;;;6247342;23;20306;-73
2022/12/27 05:48:13;;;;;;;;;;;4.10;99.90;;;;;;6246993;23;19911;-71
2022/12/27 05:50:38;;;;;;;;;;;4.20;99.90;;;;;;6246624;23;19904;-73
2022/12/27 05:53:04;;;;;;;;;;;4.20;99.90;;;;;;6246319;23;19938;-72
2022/12/27 05:55:29;;;;;;;;;;;4.20;99.90;;;;;;6246625;23;19941;-71
2022/12/27 05:57:55;;;;;;;;;;;4.30;99.90;;;;;;6246946;23;19978;-70
2022/12/27 06:00:20;;;;;;;;;;;4.30;99.90;;;;;;6246534;23;19906;-71
2022/12/27 06:02:46;;;;;;;;;;;4.40;99.90;;;;;;6246557;23;19923;-71
2022/12/27 06:05:11;;;;;;;;;;;4.40;99.90;;;;;;6246898;23;20222;-70
2022/12/27 06:07:37;;;;;;;;;;;4.30;99.90;;;;;;6246554;23;19899;-71
2022/12/27 06:10:04;;;;;;;;;;;4.30;99.90;;;;;;6246440;23;19903;-71
2022/12/27 06:12:30;;;;;;;;;;;4.30;99.90;;;;;;6246497;23;19909;-73
2022/12/27 06:14:55;;;;;;;;;;;4.30;99.90;;;;;;6246836;23;20286;-73
2022/12/27 06:17:21;;;;;;;;;;;4.30;99.90;;;;;;6246480;23;19900;-72
2022/12/27 06:19:46;;;;;;;;;;;4.40;99.90;;;;;;6246839;23;20237;-73
2022/12/27 06:22:12;;;;;;;;;;;4.30;99.90;;;;;;6246502;23;19982;-72
2022/12/27 06:24:37;;;;;;;;;;;4.40;99.90;;;;;;6246362;22;19900;-73
2022/12/27 06:27:03;;;;;;;;;;;4.40;99.90;;;;;;6246808;23;19910;-71
2022/12/27 06:29:28;;;;;;;;;;;4.40;99.90;;;;;;6246332;23;19900;-70
2022/12/27 06:31:54;;;;;;;;;;;4.30;99.90;;;;;;6246434;23;19911;-72
2022/12/27 06:34:19;;;;;;;;;;;4.30;99.90;;;;;;6246430;23;19984;-72
2022/12/27 06:36:49;;;;;;;;;;;4.30;99.90;;;;;;6246431;23;19979;-71
2022/12/27 06:39:15;;;;;;;;;;;4.10;99.90;;;;;;6246698;23;19906;-72
2022/12/27 06:41:40;;;;;;;;;;;4.00;99.90;;;;;;6246395;23;19900;-71
2022/12/27 06:44:06;;;;;;;;;;;3.90;99.90;;;;;;6247094;23;19970;-71
2022/12/27 06:46:31;;;;;;;;;;;4.10;99.90;;;;;;6246406;23;19900;-72
2022/12/27 06:48:57;;;;;;;;;;;4.00;99.90;;;;;;6246348;23;19927;-72
2022/12/27 06:51:22;;;;;;;;;;;4.20;99.90;;;;;;6246617;23;19989;-73
2022/12/27 06:53:48;;;;;;;;;;;4.10;99.90;;;;;;6246318;23;19899;-71
2022/12/27 06:56:15;;;;;;;;;;;4.10;99.90;;;;;;6246660;23;19986;-73
2022/12/27 06:58:41;;;;;;;;;;;4.20;99.90;;;;;;6246294;23;20322;-72
2022/12/27 07:01:14;;;;;;;;;;;4.20;99.90;;;;;;6246610;23;19900;-72
2022/12/27 07:03:40;;;;;;;;;;;4.10;99.90;;;;;;6246687;23;19907;-72
2022/12/27 07:06:06;;;;;;;;;;;4.00;99.90;;;;;;6248934;23;19900;-71
2022/12/27 07:08:33;;;;;;;;;;;4.00;99.90;;;;;;6248163;23;20219;-72
2022/12/27 07:11:00;;;;;;;;;;;3.90;99.90;;;;;;6248050;23;19903;-71
2022/12/27 07:13:25;;;;;;;;;;;3.70;99.90;;;;;;6248806;23;19899;-71
2022/12/27 07:15:51;;;;;;;;;;;3.70;99.90;;;;;;6221177;23;20380;-71
2022/12/27 07:18:16;;;;;;;;;;;3.90;99.90;;;;;;6248367;23;19978;-70
2022/12/27 07:20:41;;;;;;;;;;;3.90;99.90;;;;;;6248088;23;19900;-71
2022/12/27 07:23:07;;;;;;;;;;;3.90;99.90;;;;;;6248385;23;19949;-70
2022/12/27 07:25:32;;;;;;;;;;;3.80;99.90;;;;;;6247967;22;19900;-71
2022/12/27 07:27:58;;;;;;;;;;;3.90;99.90;;;;;;6248359;23;20341;-72
2022/12/27 07:30:25;;;;;;;;;;;3.90;99.90;;;;;;6247909;23;19907;-73
2022/12/27 07:32:50;;;;;;;;;;;4.00;99.90;;;;;;6220759;23;20265;-72
2022/12/27 07:35:16;;;;;;;;;;;4.00;99.90;;;;;;6248642;23;19931;-70
2022/12/27 07:37:41;;;;;;;;;;;4.10;99.90;;;;;;6247884;23;19907;-71
2022/12/27 07:40:07;;;;;;;;;;;4.20;99.90;;;;;;6248601;23;19925;-70
2022/12/27 07:42:32;;;;;;;;;;;4.20;99.90;;;;;;6247856;23;19906;-70
2022/12/27 07:44:58;;;;;;;;;;;4.40;99.90;;;;;;6248229;23;20235;-72
2022/12/27 07:47:23;;;;;;;;;;;4.50;99.90;;;;;;6247780;23;19910;-71
2022/12/27 07:49:49;;;;;;;;;;;4.50;99.90;;;;;;6247747;23;19906;-70
2022/12/27 07:52:14;;;;;;;;;;;4.60;99.90;;;;;;6247781;23;19899;-72
2022/12/27 07:54:40;;;;;;;;;;;4.60;99.90;;;;;;6247724;23;19922;-73
2022/12/27 07:57:06;;;;;;;;;;;4.60;99.90;;;;;;6247681;23;20344;-71
2022/12/27 07:59:31;;;;;;;;;;;4.60;99.90;;;;;;6248381;23;19899;-71
2022/12/27 08:02:03;;;;;;;;;;;4.80;99.90;;;;;;6247622;23;19899;-71
2022/12/27 08:04:29;;;;;;;;;;;4.80;99.90;;;;;;6248336;23;20370;-72
2022/12/27 08:07:05;;;;;;;;;;;4.80;99.90;;;;;;6247636;23;19904;-71
2022/12/27 08:09:32;;;;;;;;;;;4.90;99.90;;;;;;6247588;23;19969;-71
2022/12/27 08:11:58;;;;;;;;;;;4.90;99.90;;;;;;6247651;23;19990;-70
2022/12/27 08:14:23;;;;;;;;;;;5.00;99.90;;;;;;6248279;23;19903;-72
2022/12/27 08:16:49;;;;;;;;;;;4.90;99.90;;;;;;6247235;23;19949;-72
2022/12/27 08:19:14;;;;;;;;;;;4.80;99.90;;;;;;6247848;23;20027;-71
2022/12/27 08:21:40;;;;;;;;;;;4.80;99.90;;;;;;6247506;23;20318;-71
2022/12/27 08:24:05;;;;;;;;;;;4.80;99.90;;;;;;6247423;22;19900;-72
2022/12/27 08:26:31;;;;;;;;;;;4.70;99.90;;;;;;6247391;23;19911;-70
2022/12/27 08:28:56;;;;;;;;;;;4.60;99.90;;;;;;6247441;23;19986;-72
2022/12/27 08:31:22;;;;;;;;;;;4.60;99.90;;;;;;6247423;23;19904;-71
2022/12/27 08:33:47;;;;;;;;;;;4.70;99.90;;;;;;6247759;23;20333;-71
2022/12/27 08:36:13;;;;;;;;;;;4.90;99.90;;;;;;6247701;23;19941;-71
2022/12/27 08:38:39;;;;;;;;;;;4.90;99.90;;;;;;6247367;23;19906;-70
2022/12/27 08:41:04;;;;;;;;;;;5.10;99.90;;;;;;6247273;23;19899;-72
2022/12/27 08:43:30;;;;;;;;;;;5.20;99.90;;;;;;6247944;23;19906;-70
2022/12/27 08:45:59;;;;;;;;;;;5.40;99.90;;;;;;6247217;23;19899;-73
2022/12/27 08:48:24;;;;;;;;;;;5.50;99.90;;;;;;6247908;23;19899;-73
2022/12/27 08:50:50;;;;;;;;;;;5.60;99.90;;;;;;6247130;23;19904;-72
2022/12/27 08:53:16;;;;;;;;;;;5.60;99.90;;;;;;6247222;23;20269;-71
2022/12/27 08:55:41;;;;;;;;;;;5.70;99.90;;;;;;6247176;23;19899;-71
2022/12/27 08:58:07;;;;;;;;;;;5.90;99.90;;;;;;6247512;23;20254;-72
2022/12/27 09:00:32;;;;;;;;;;;6.10;99.90;;;;;;6247400;23;20314;-72
2022/12/27 09:02:58;;;;;;;;;;;6.30;99.90;;;;;;6247103;23;19970;-71
2022/12/27 09:05:24;;;;;;;;;;;6.40;99.90;;;;;;6247044;23;19904;-71
2022/12/27 09:07:49;;;;;;;;;;;6.30;99.90;;;;;;6247003;23;19899;-70
2022/12/27 09:10:15;;;;;;;;;;;6.30;99.90;;;;;;6247224;23;19961;-73
2022/12/27 09:12:41;;;;;;;;;;;6.30;99.90;;;;;;6246997;23;19900;-72
2022/12/27 09:15:07;;;;;;;;;;;6.50;99.90;;;;;;6247295;23;19900;-72
2022/12/27 09:17:33;;;;;;;;;;;6.80;99.90;;;;;;6246934;23;20238;-72
2022/12/27 09:19:58;;;;;;;;;;;7.10;99.90;;;;;;6246927;23;19986;-72
2022/12/27 09:22:24;;;;;;;;;;;7.30;99.90;;;;;;6246907;23;19926;-71
2022/12/27 09:24:49;;;;;;;;;;;7.50;99.90;;;;;;6246788;22;20345;-71
2022/12/27 09:27:15;;;;;;;;;;;7.50;99.90;;;;;;6246679;23;19905;-71
2022/12/27 09:29:40;;;;;;;;;;;7.50;99.90;;;;;;6246739;23;19899;-71
2022/12/27 09:32:06;;;;;;;;;;;7.50;99.90;;;;;;6246827;23;19961;-73
2022/12/27 09:34:31;;;;;;;;;;;7.50;99.90;;;;;;6246806;23;19899;-73
2022/12/27 09:36:57;;;;;;;;;;;7.60;99.90;;;;;;6247457;23;20336;-72
2022/12/27 09:39:22;;;;;;;;;;;7.60;99.90;;;;;;6246755;23;19977;-70
2022/12/27 09:41:57;;;;;;;;;;;7.50;99.90;;;;;;6247044;23;19907;-71
2022/12/27 09:44:41;;;;;;;;;;;7.50;99.90;;;;;;6246719;23;19899;-73
2022/12/27 09:47:13;;;;;;;;;;;7.60;99.90;;;;;;6246682;23;19935;-72
2022/12/27 09:49:41;;;;;;;;;;;7.60;99.90;;;;;;6246767;23;19946;-71
2022/12/27 09:52:10;;;;;;;;;;;8.90;99.90;;;;;;6246635;23;19906;-73
2022/12/27 09:54:40;;;;;;;;;;;12.30;99.90;;;;;;6246596;23;19979;-72
2022/12/27 09:57:13;;;;;;;;;;;14.90;99.90;;;;;;6246890;23;19922;-72
2022/12/27 09:59:44;;;;;;;;;;;16.80;99.90;;;;;;6246995;23;19939;-72
2022/12/27 10:02:19;;;;;;;;;;;17.40;99.90;;;;;;6246880;23;19938;-73
2022/12/27 10:04:45;;;;;;;;;;;17.70;99.90;;;;;;6246987;23;20229;-74
2022/12/27 10:07:33;;;;;;;;;;;17.70;99.90;;;;;;6246522;23;19975;-70
2022/12/27 10:10:18;;;;;;;;;;;18.00;99.90;;;;;;6176535;23;19911;-71
2022/12/27 10:13:01;;;;;;;;;;;18.40;99.90;;;;;;6246849;23;19904;-72
2022/12/27 10:15:39;;;;;;;;;;;18.90;99.90;;;;;;6246478;23;19942;-72
2022/12/27 10:18:16;;;;;;;;;;;18.60;99.90;;;;;;6246842;23;19903;-72
2022/12/27 10:20:56;;;;;;;;;;;18.50;99.90;;;;;;6246480;23;20285;-73
2022/12/27 10:23:24;;;;;;;;;;;19.00;99.90;;;;;;6246444;23;19906;-73
2022/12/27 10:25:57;;;;;;;;;;;19.20;99.90;;;;;;6246703;22;20356;-72
2022/12/27 10:28:27;;;;;;;;;;;19.40;99.90;;;;;;6246803;23;19910;-72
2022/12/27 10:30:53;;;;;;;;;;;19.60;99.90;;;;;;6246658;23;19935;-72
2022/12/27 10:33:29;;;;;;;;;;;19.50;99.90;;;;;;6246193;23;20250;-72
2022/12/27 10:35:55;;;;;;;;;;;19.80;99.90;;;;;;6247398;23;19907;-73
2022/12/27 10:38:21;;;;;;;;;;;19.80;99.90;;;;;;6246557;23;19899;-71
2022/12/27 10:40:56;;;;;;;;;;;19.40;99.90;;;;;;6248815;23;19899;-72
2022/12/27 10:43:36;;;;;;;;;;;19.40;99.90;;;;;;6248485;23;19900;-70
2022/12/27 10:46:12;;;;;;;;;;;19.60;99.90;;;;;;6248431;23;19930;-72
2022/12/27 10:48:37;;;;;;;;;;;19.40;99.90;;;;;;6248801;23;19904;-71
2022/12/27 10:51:10;;;;;;;;;;;19.50;99.90;;;;;;6248280;23;19981;-73
2022/12/27 10:53:45;;;;;;;;;;;19.40;99.90;;;;;;6249024;23;19922;-73
2022/12/27 10:56:10;;;;;;;;;;;19.30;99.90;;;;;;6248303;23;20277;-72
2022/12/27 10:58:37;;;;;;;;;;;19.30;99.90;;;;;;6248268;23;19900;-72
2022/12/27 11:01:03;;;;;;;;;;;18.10;99.90;;;;;;6248547;23;19900;-72
2022/12/27 11:03:29;;;;;;;;;;;18.50;99.90;;;;;;6248268;23;19906;-71
2022/12/27 11:06:05;;;;;;;;;;;18.30;99.90;;;;;;6248197;23;19900;-72
2022/12/27 11:08:31;;;;;;;;;;;17.70;99.90;;;;;;6248512;23;19899;-72
2022/12/27 11:11:17;;;;;;;;;;;18.50;99.90;;;;;;6248395;23;19903;-72
2022/12/27 11:13:43;;;;;;;;;;;18.70;99.90;;;;;;6248129;23;19945;-72
2022/12/27 11:16:16;;;;;;;;;;;18.40;99.90;;;;;;6248490;23;19900;-70
2022/12/27 11:18:44;;;;;;;;;;;16.40;99.90;;;;;;6248103;23;19931;-71
2022/12/27 11:21:11;;;;;;;;;;;14.30;99.90;;;;;;6248087;23;19923;-73
2022/12/27 11:23:41;;;;;;;;;;;15.40;99.90;;;;;;6248005;23;19907;-73
2022/12/27 11:26:06;;;;;;;;;;;15.00;99.90;;;;;;6247969;22;19899;-73
2022/12/27 11:28:37;;;;;;;;;;;13.70;99.90;;;;;;6248688;23;19934;-70
2022/12/27 11:31:05;;;;;;;;;;;12.90;99.90;;;;;;6247903;23;19907;-72
2022/12/27 11:33:38;;;;;;;;;;;12.60;99.90;;;;;;6247426;23;19911;-71
2022/12/27 11:36:03;;;;;;;;;;;12.00;99.90;;;;;;6248681;23;19912;-71
2022/12/27 11:38:30;;;;;;;;;;;11.40;99.90;;;;;;6247737;23;19925;-71
2022/12/27 11:41:08;;;;;;;;;;;11.10;99.90;;;;;;6248596;23;19982;-72
2022/12/27 11:44:12;;;;;;;;;;;10.80;99.90;;;;;;6248195;23;19904;-71
2022/12/27 11:46:42;;;;;;;;;;;10.70;99.90;;;;;;6096330;23;20036;-73
2022/12/27 11:49:12;;;;;;;;;;;10.60;99.90;;;;;;6097117;23;20340;-72
2022/12/27 11:51:38;;;;;;;;;;;10.60;99.90;;;;;;6175490;23;19908;-71
2022/12/27 11:54:06;;;;;;;;;;;10.60;99.90;;;;;;6248406;23;20314;-73
2022/12/27 11:56:40;;;;;;;;;;;10.70;99.90;;;;;;6247775;23;19927;-72
2022/12/27 11:59:20;;;;;;;;;;;10.70;99.90;;;;;;6247665;23;19899;-72
2022/12/27 12:01:55;;;;;;;;;;;10.70;99.90;;;;;;6247701;23;19948;-72
2022/12/27 12:04:39;;;;;;;;;;;10.80;99.90;;;;;;6248026;23;19899;-71
2022/12/27 12:07:28;;;;;;;;;;;10.80;99.90;;;;;;6247669;23;19899;-71
2022/12/27 12:09:59;;;;;;;;;;;10.90;99.90;;;;;;6177937;23;19910;-72
2022/12/27 12:12:27;;;;;;;;;;;10.90;99.90;;;;;;6247602;23;19900;-72
2022/12/27 12:14:56;;;;;;;;;;;11.00;99.90;;;;;;6247605;23;19944;-73
2022/12/27 12:17:40;;;;;;;;;;;11.00;99.90;;;;;;6248246;23;19903;-74
2022/12/27 12:20:25;;;;;;;;;;;11.00;99.90;;;;;;6247520;23;19903;-72
2022/12/27 12:23:04;;;;;;;;;;;11.10;99.90;;;;;;6171500;23;19900;-73
2022/12/27 12:25:35;;;;;;;;;;;11.10;99.90;;;;;;6248117;22;20251;-73
2022/12/27 12:28:21;;;;;;;;;;;11.20;99.90;;;;;;6247440;23;19900;-72
2022/12/27 12:30:46;;;;;;;;;;;11.20;99.90;;;;;;6247702;23;19950;-72
2022/12/27 12:33:41;;;;;;;;;;;11.20;99.90;;;;;;6246933;23;19982;-71
2022/12/27 12:36:25;;;;;;;;;;;11.30;99.90;;;;;;6214517;23;19906;-73
2022/12/27 12:38:57;;;;;;;;;;;11.30;99.90;;;;;;6248024;23;19899;-71
2022/12/27 12:41:41;;;;;;;;;;;11.30;99.90;;;;;;6247303;23;19904;-72
2022/12/27 12:44:07;;;;;;;;;;;11.30;99.90;;;;;;6247253;23;19906;-71
2022/12/27 12:46:32;;;;;;;;;;;11.40;99.90;;;;;;6247938;23;19900;-73
2022/12/27 12:49:00;;;;;;;;;;;11.50;99.90;;;;;;6247596;23;19899;-71
2022/12/27 12:51:45;;;;;;;;;;;11.50;99.90;;;;;;6247118;23;19910;-71
2022/12/27 12:54:22;;;;;;;;;;;11.50;99.90;;;;;;6247939;23;20295;-71
2022/12/27 12:56:51;;;;;;;;;;;11.60;99.90;;;;;;6247144;23;19900;-72
2022/12/27 12:59:16;;;;;;;;;;;11.60;99.90;;;;;;6247134;23;20340;-72
2022/12/27 13:01:56;;;;;;;;;;;11.50;99.90;;;;;;6247337;23;19937;-72
2022/12/27 13:04:28;;;;;;;;;;;11.60;99.90;;;;;;6247474;23;19900;-74
2022/12/27 13:07:12;;;;;;;;;;;11.70;99.90;;;;;;6247745;23;19904;-73
2022/12/27 13:09:59;;;;;;;;;;;11.70;99.90;;;;;;6246995;23;20389;-72
2022/12/27 13:12:30;;;;;;;;;;;11.80;99.90;;;;;;6247410;23;19904;-71
2022/12/27 13:15:05;;;;;;;;;;;11.80;99.90;;;;;;6247003;23;19899;-73
2022/12/27 13:17:50;;;;;;;;;;;11.80;99.90;;;;;;6246947;23;19900;-73
2022/12/27 13:20:22;;;;;;;;;;;11.80;99.90;;;;;;6247654;23;20289;-71
2022/12/27 13:22:50;;;;;;;;;;;11.70;99.90;;;;;;6246933;23;19905;-72
2022/12/27 13:25:34;;;;;;;;;;;11.50;99.90;;;;;;6247167;22;19962;-71
2022/12/27 13:28:08;;;;;;;;;;;11.60;99.90;;;;;;6247192;23;19954;-71
2022/12/27 13:30:34;;;;;;;;;;;11.60;99.90;;;;;;6247075;23;19907;-73
2022/12/27 13:33:05;;;;;;;;;;;11.60;99.90;;;;;;6246544;23;19990;-73
2022/12/27 13:35:38;;;;;;;;;;;11.70;99.90;;;;;;6247517;23;19899;-71
2022/12/27 13:38:09;;;;;;;;;;;11.70;99.90;;;;;;6246814;23;19982;-72
2022/12/27 13:41:01;;;;;;;;;;;11.70;99.90;;;;;;6246730;23;20333;-72
2022/12/27 13:43:30;;;;;;;;;;;11.70;99.90;;;;;;6239196;23;19993;-72
2022/12/27 13:46:03;;;;;;;;;;;11.70;99.90;;;;;;6219818;23;19949;-74
2022/12/27 13:48:38;;;;;;;;;;;11.80;99.90;;;;;;6246724;23;19899;-73
2022/12/27 13:51:30;;;;;;;;;;;11.90;99.90;;;;;;6247008;23;19904;-72
2022/12/27 13:53:58;;;;;;;;;;;11.90;99.90;;;;;;6247102;23;19899;-73
2022/12/27 13:56:43;;;;;;;;;;;11.90;99.90;;;;;;6247333;23;19911;-71
2022/12/27 13:59:09;;;;;;;;;;;11.90;99.90;;;;;;6246644;23;20278;-72
2022/12/27 14:01:41;;;;;;;;;;;11.90;99.90;;;;;;6246520;23;19906;-72
2022/12/27 14:04:33;;;;;;;;;;;11.90;99.90;;;;;;6247009;23;20203;-72
2022/12/27 14:07:07;;;;;;;;;;;11.90;99.90;;;;;;6246992;23;20318;-71
2022/12/27 14:09:39;;;;;;;;;;;11.70;99.90;;;;;;6247213;23;19906;-72
2022/12/27 14:12:23;;;;;;;;;;;11.50;99.90;;;;;;6246422;23;19908;-72
2022/12/27 14:14:49;;;;;;;;;;;11.60;99.90;;;;;;6246551;23;19922;-73
2022/12/27 14:17:41;;;;;;;;;;;11.70;99.90;;;;;;6246548;23;20280;-72
2022/12/27 14:20:23;;;;;;;;;;;11.70;99.90;;;;;;6188726;23;20314;-74
2022/12/27 14:22:58;;;;;;;;;;;11.70;99.90;;;;;;6247205;23;19907;-71
2022/12/27 14:25:30;;;;;;;;;;;11.60;99.90;;;;;;6246448;22;19903;-72
2022/12/27 14:27:58;;;;;;;;;;;11.60;99.90;;;;;;6246261;23;19900;-71
2022/12/27 14:30:30;;;;;;;;;;;11.70;99.90;;;;;;6246280;23;19914;-73
2022/12/27 14:32:55;;;;;;;;;;;11.70;99.90;;;;;;6246118;23;20372;-73
2022/12/27 14:35:46;;;;;;;;;;;11.60;99.90;;;;;;6246356;23;19899;-72
2022/12/27 14:38:12;;;;;;;;;;;11.60;99.90;;;;;;6246772;23;19974;-71
2022/12/27 14:40:49;;;;;;;;;;;11.50;99.90;;;;;;6246583;23;20293;-72
2022/12/27 14:43:20;;;;;;;;;;;11.50;99.90;;;;;;6246709;23;19904;-72
2022/12/27 14:45:45;;;;;;;;;;;11.50;99.90;;;;;;6246371;23;19906;-72
2022/12/27 14:48:30;;;;;;;;;;;11.50;99.90;;;;;;6219475;23;19900;-72
2022/12/27 14:51:15;;;;;;;;;;;11.50;99.90;;;;;;6246156;23;20314;-72
2022/12/27 14:53:59;;;;;;;;;;;11.30;99.90;;;;;;6219140;23;20402;-73
2022/12/27 14:56:27;;;;;;;;;;;11.30;99.90;;;;;;6246311;23;20322;-73
2022/12/27 14:59:11;;;;;;;;;;;11.30;99.90;;;;;;6246324;23;19997;-73
2022/12/27 15:01:49;;;;;;;;;;;11.30;99.90;;;;;;6246908;23;19899;-72
2022/12/27 15:04:32;;;;;;;;;;;11.30;99.90;;;;;;6246248;23;20293;-73
2022/12/27 15:07:21;;;;;;;;;;;11.40;99.90;;;;;;6246599;23;19949;-72
2022/12/27 15:10:11;;;;;;;;;;;11.40;99.90;;;;;;6246548;23;20022;-74
2022/12/27 15:12:36;;;;;;;;;;;11.40;99.90;;;;;;6246615;23;19934;-73
2022/12/27 15:15:28;;;;;;;;;;;11.40;99.90;;;;;;6246239;23;19899;-72
2022/12/27 15:18:00;;;;;;;;;;;11.30;99.90;;;;;;6238801;23;20317;-72
2022/12/27 15:20:44;;;;;;;;;;;11.30;99.90;;;;;;6246160;23;19907;-73
2022/12/27 15:23:12;;;;;;;;;;;11.20;99.90;;;;;;6246170;23;19923;-71
2022/12/27 15:25:46;;;;;;;;;;;11.10;99.90;;;;;;6247390;22;19946;-72
2022/12/27 15:28:31;;;;;;;;;;;11.00;99.90;;;;;;6248798;23;20283;-71
2022/12/27 15:31:03;;;;;;;;;;;11.00;99.90;;;;;;6248223;23;19903;-73
2022/12/27 15:33:29;;;;;;;;;;;11.00;99.90;;;;;;6247416;23;19915;-73
2022/12/27 15:35:58;;;;;;;;;;;10.90;99.90;;;;;;6248179;23;19900;-71
2022/12/27 15:38:39;;;;;;;;;;;10.90;99.90;;;;;;6247907;23;19946;-71
2022/12/27 15:41:05;;;;;;;;;;;10.80;99.90;;;;;;6221108;23;19900;-72
2022/12/27 15:43:38;;;;;;;;;;;10.80;99.90;;;;;;6247871;23;20281;-71
2022/12/27 15:46:06;;;;;;;;;;;10.70;99.90;;;;;;6248288;23;20323;-71
2022/12/27 15:48:32;;;;;;;;;;;10.70;99.90;;;;;;6247837;23;19899;-73
2022/12/27 15:51:16;;;;;;;;;;;10.50;99.90;;;;;;6248057;23;19910;-71
2022/12/27 15:53:47;;;;;;;;;;;10.40;99.90;;;;;;6247770;23;19900;-72
2022/12/27 15:56:31;;;;;;;;;;;10.40;99.90;;;;;;6248120;23;19906;-73
2022/12/27 15:59:16;;;;;;;;;;;10.30;99.90;;;;;;6220800;23;19906;-71
2022/12/27 16:01:41;;;;;;;;;;;10.20;99.90;;;;;;6247675;23;19907;-73
2022/12/27 16:04:25;;;;;;;;;;;10.20;99.90;;;;;;6247703;23;19899;-73
2022/12/27 16:06:51;;;;;;;;;;;10.40;99.90;;;;;;6247947;23;20345;-71
2022/12/27 16:09:19;;;;;;;;;;;10.40;99.90;;;;;;6247996;23;19899;-73
2022/12/27 16:12:02;;;;;;;;;;;10.40;99.90;;;;;;6247506;23;19903;-71
2022/12/27 16:14:29;;;;;;;;;;;10.40;99.90;;;;;;6247918;23;20266;-72
2022/12/27 16:17:02;;;;;;;;;;;10.40;99.90;;;;;;6247558;23;19899;-72
2022/12/27 16:19:50;;;;;;;;;;;10.40;99.90;;;;;;6248268;23;19975;-71